Time;durP1;ratioP1;P1;durP2;ratioP2;P2;SDS_P1;SDS_P2;PMS_P1;PMS_P2;Temp;Humidity;BMP_temperature;BMP_pressure;BME280_temperature;BME280_humidity;BME280_pressure;Samples;Min_cycle;Max_cycle;Signal;HPM_P1;HPM_P2
2024/04/09 00:00:21;;;;;;;15.83;2.77;;;20.50;70.20;;;;;;5416531;26;20499;-71
2024/04/09 00:02:47;;;;;;;6.77;2.10;;;20.50;69.60;;;;;;5417299;26;20217;-71
2024/04/09 00:05:12;;;;;;;8.20;2.67;;;20.40;68.90;;;;;;5414642;26;20555;-72
2024/04/09 00:07:38;;;;;;;5.33;2.13;;;20.30;69.40;;;;;;5417224;26;20254;-71
2024/04/09 00:10:06;;;;;;;15.23;3.50;;;20.20;71.40;;;;;;5416429;26;20271;-71
2024/04/09 00:12:33;;;;;;;6.50;3.17;;;20.30;72.30;;;;;;5416974;26;20687;-70
2024/04/09 00:14:59;;;;;;;6.20;2.30;;;20.20;72.20;;;;;;5417057;26;20965;-71
2024/04/09 00:17:25;;;;;;;4.87;2.83;;;20.20;67.60;;;;;;5416776;26;20483;-71
2024/04/09 00:19:51;;;;;;;14.53;3.20;;;20.20;66.80;;;;;;5416810;26;20694;-71
2024/04/09 00:22:17;;;;;;;5.37;2.20;;;20.30;67.90;;;;;;5416717;26;20435;-71
2024/04/09 00:24:43;;;;;;;9.77;3.47;;;20.30;69.50;;;;;;5416573;26;20212;-71
2024/04/09 00:27:08;;;;;;;7.90;2.90;;;20.30;70.90;;;;;;5416935;26;20894;-71
2024/04/09 00:29:34;;;;;;;6.20;3.23;;;20.30;72.90;;;;;;5414666;26;20522;-71
2024/04/09 00:32:01;;;;;;;10.47;2.50;;;20.30;76.10;;;;;;5416791;26;20212;-71
2024/04/09 00:34:27;;;;;;;4.07;2.47;;;20.10;80.60;;;;;;5415071;26;20244;-71
2024/04/09 00:36:53;;;;;;;6.47;2.77;;;20.00;83.70;;;;;;5416813;26;20438;-71
2024/04/09 00:39:27;;;;;;;4.47;2.07;;;19.90;87.80;;;;;;5416234;26;20317;-71
2024/04/09 00:41:53;;;;;;;5.33;2.47;;;19.80;90.50;;;;;;5416693;26;20493;-71
2024/04/09 00:44:23;;;;;;;7.97;2.70;;;19.70;94.20;;;;;;5416676;26;20507;-71
2024/04/09 00:46:49;;;;;;;11.30;5.00;;;19.60;98.90;;;;;;5416724;26;20479;-71
2024/04/09 00:49:15;;;;;;;14.07;3.00;;;19.40;99.90;;;;;;5416077;26;20466;-71
2024/04/09 00:51:47;;;;;;;3.10;1.70;;;19.30;99.90;;;;;;5414692;26;20220;-71
2024/04/09 00:54:13;;;;;;;5.93;2.40;;;19.10;99.90;;;;;;5416549;26;20552;-70
2024/04/09 00:56:39;;;;;;;4.63;3.03;;;19.00;99.90;;;;;;5414740;26;20692;-70
2024/04/09 00:59:05;;;;;;;5.23;2.17;;;18.90;99.90;;;;;;5416130;26;20747;-71
2024/04/09 01:01:33;;;;;;;11.70;2.67;;;18.80;99.90;;;;;;5416353;26;20531;-70
2024/04/09 01:03:59;;;;;;;7.60;2.33;;;18.70;99.90;;;;;;5415792;26;20313;-71
2024/04/09 01:06:25;;;;;;;5.37;1.90;;;18.50;99.90;;;;;;5415345;26;20443;-71
2024/04/09 01:08:51;;;;;;;10.57;3.03;;;18.40;99.90;;;;;;5414153;26;20220;-71
2024/04/09 01:11:16;;;;;;;6.20;2.33;;;18.40;99.90;;;;;;5416079;26;20329;-71
2024/04/09 01:13:42;;;;;;;6.80;2.30;;;18.30;99.90;;;;;;5415980;26;20212;-71
2024/04/09 01:16:10;;;;;;;5.90;1.90;;;18.20;99.90;;;;;;5416194;26;20216;-71
2024/04/09 01:18:36;;;;;;;8.17;1.87;;;18.10;99.90;;;;;;5415679;26;20664;-71
2024/04/09 01:21:03;;;;;;;3.73;2.57;;;18.00;99.90;;;;;;5416069;26;20466;-71
2024/04/09 01:23:28;;;;;;;5.23;2.63;;;18.00;99.90;;;;;;5416019;26;20204;-71
2024/04/09 01:25:54;;;;;;;3.00;1.83;;;17.90;99.90;;;;;;5416121;26;20491;-71
2024/04/09 01:28:19;;;;;;;13.43;2.60;;;17.80;99.90;;;;;;5415501;26;20235;-71
2024/04/09 01:30:46;;;;;;;8.00;1.90;;;17.80;99.90;;;;;;5415532;26;20270;-70
2024/04/09 01:33:12;;;;;;;11.03;2.43;;;17.70;99.90;;;;;;5415934;26;20209;-71
2024/04/09 01:35:39;;;;;;;5.97;2.07;;;17.60;99.90;;;;;;5413641;26;20430;-71
2024/04/09 01:38:04;;;;;;;3.53;2.10;;;17.60;99.90;;;;;;5414262;26;20287;-70
2024/04/09 01:40:30;;;;;;;4.30;2.20;;;17.50;99.90;;;;;;5415168;26;20503;-71
2024/04/09 01:42:55;;;;;;;3.13;1.70;;;17.50;99.90;;;;;;5415930;26;20427;-71
2024/04/09 01:45:21;;;;;;;5.30;1.70;;;17.40;99.90;;;;;;5415870;26;20313;-71
2024/04/09 01:47:47;;;;;;;5.93;2.30;;;17.40;99.90;;;;;;5415531;26;20243;-71
2024/04/09 01:50:12;;;;;;;6.17;1.90;;;17.40;99.90;;;;;;5414993;26;20236;-70
2024/04/09 01:52:40;;;;;;;8.00;2.00;;;17.30;99.90;;;;;;5415736;26;20325;-71
2024/04/09 01:55:06;;;;;;;4.27;1.57;;;17.30;99.90;;;;;;5415638;26;20699;-71
2024/04/09 01:57:31;;;;;;;8.40;1.77;;;17.30;99.90;;;;;;5415622;26;20489;-71
2024/04/09 01:59:57;;;;;;;4.83;1.90;;;17.20;99.90;;;;;;5415092;26;20221;-70
2024/04/09 02:02:23;;;;;;;2.50;1.30;;;17.20;99.90;;;;;;5415660;26;20233;-70
2024/04/09 02:04:49;;;;;;;2.40;1.67;;;17.20;99.90;;;;;;5413281;26;20220;-71
2024/04/09 02:07:14;;;;;;;5.93;1.80;;;17.10;99.90;;;;;;5415308;26;20483;-71
2024/04/09 02:09:40;;;;;;;2.40;1.77;;;17.10;99.90;;;;;;5415171;26;20677;-71
2024/04/09 02:12:07;;;;;;;7.10;2.13;;;17.10;99.90;;;;;;5415122;26;20703;-71
2024/04/09 02:14:34;;;;;;;4.40;1.57;;;17.10;99.90;;;;;;5415189;26;20224;-71
2024/04/09 02:17:01;;;;;;;2.20;1.40;;;17.10;99.90;;;;;;5415167;26;20431;-71
2024/04/09 02:19:27;;;;;;;7.33;2.00;;;17.10;99.90;;;;;;5414657;26;20505;-71
2024/04/09 02:21:52;;;;;;;4.00;1.60;;;17.10;99.90;;;;;;5415095;26;20499;-71
2024/04/09 02:24:18;;;;;;;7.50;2.00;;;17.10;99.90;;;;;;5413073;26;20247;-71
2024/04/09 02:26:44;;;;;;;5.47;1.47;;;17.00;99.90;;;;;;5415057;26;20555;-71
2024/04/09 02:29:09;;;;;;;5.70;1.53;;;17.00;99.90;;;;;;5414580;26;20741;-72
2024/04/09 02:31:35;;;;;;;3.10;1.60;;;17.00;99.90;;;;;;5414890;26;20430;-72
2024/04/09 02:34:01;;;;;;;2.53;1.30;;;17.10;99.90;;;;;;5414960;26;20297;-71
2024/04/09 02:36:26;;;;;;;2.83;1.70;;;17.00;99.90;;;;;;5414866;26;20434;-71
2024/04/09 02:38:52;;;;;;;1.27;1.17;;;17.00;99.90;;;;;;5414679;26;20208;-72
2024/04/09 02:41:18;;;;;;;5.27;1.70;;;17.00;99.90;;;;;;5414718;26;20221;-71
2024/04/09 02:43:44;;;;;;;3.67;1.87;;;16.90;99.90;;;;;;5414574;26;20267;-71
2024/04/09 02:46:09;;;;;;;4.50;1.80;;;16.90;99.90;;;;;;5415242;26;20251;-72
2024/04/09 02:48:35;;;;;;;3.03;1.70;;;16.80;99.90;;;;;;5417889;26;20217;-72
2024/04/09 02:51:05;;;;;;;4.10;1.87;;;16.80;99.90;;;;;;5418292;26;20605;-71
2024/04/09 02:53:32;;;;;;;5.30;1.90;;;16.70;99.90;;;;;;5418207;26;20964;-71
2024/04/09 02:56:02;;;;;;;3.77;1.70;;;16.70;99.90;;;;;;5418210;26;20437;-72
2024/04/09 02:58:28;;;;;;;2.90;1.47;;;16.60;99.90;;;;;;5417820;26;20832;-72
2024/04/09 03:01:04;;;;;;;7.70;1.53;;;16.50;99.90;;;;;;5417996;26;20454;-71
2024/04/09 03:03:30;;;;;;;8.50;1.70;;;16.40;99.90;;;;;;5417927;26;20216;-71
2024/04/09 03:05:56;;;;;;;6.47;2.53;;;16.40;99.90;;;;;;5418068;26;21095;-71
2024/04/09 03:08:22;;;;;;;7.57;1.50;;;16.30;99.90;;;;;;5417636;26;20434;-72
2024/04/09 03:10:48;;;;;;;4.83;2.27;;;16.30;99.90;;;;;;5418029;26;20224;-72
2024/04/09 03:13:13;;;;;;;4.90;1.77;;;16.30;99.90;;;;;;5418025;26;20208;-71
2024/04/09 03:15:39;;;;;;;7.00;2.23;;;16.30;99.90;;;;;;5417164;26;20572;-72
2024/04/09 03:18:05;;;;;;;3.63;1.60;;;16.20;99.90;;;;;;5417949;26;20321;-72
2024/04/09 03:20:30;;;;;;;4.00;1.90;;;16.30;99.90;;;;;;5417345;26;20454;-71
2024/04/09 03:22:56;;;;;;;7.00;2.33;;;16.30;99.90;;;;;;5417784;26;20247;-72
2024/04/09 03:25:21;;;;;;;5.27;2.17;;;16.30;99.90;;;;;;5417634;26;20209;-72
2024/04/09 03:27:47;;;;;;;8.47;1.93;;;16.40;99.90;;;;;;5417709;26;20220;-72
2024/04/09 03:30:13;;;;;;;6.60;1.97;;;16.40;99.90;;;;;;5417238;26;20221;-72
2024/04/09 03:32:38;;;;;;;3.83;1.33;;;16.40;99.90;;;;;;5417981;26;20321;-71
2024/04/09 03:35:04;;;;;;;2.50;1.20;;;16.50;99.90;;;;;;5417560;26;21010;-72
2024/04/09 03:37:30;;;;;;;3.87;1.57;;;16.50;99.90;;;;;;5417684;26;20213;-72
2024/04/09 03:39:55;;;;;;;10.43;1.90;;;16.50;99.90;;;;;;5417317;26;20502;-71
2024/04/09 03:42:21;;;;;;;5.20;2.20;;;16.50;99.90;;;;;;5417572;26;20259;-72
2024/04/09 03:44:47;;;;;;;5.40;1.83;;;16.50;99.90;;;;;;5417438;26;20208;-72
2024/04/09 03:47:12;;;;;;;4.10;1.50;;;16.60;99.90;;;;;;5417383;26;20255;-71
2024/04/09 03:49:38;;;;;;;3.30;1.47;;;16.50;99.90;;;;;;5416839;26;20715;-72
2024/04/09 03:52:04;;;;;;;1.50;1.10;;;16.60;99.90;;;;;;5415500;26;20224;-71
2024/04/09 03:54:31;;;;;;;3.20;1.40;;;16.70;99.90;;;;;;5417405;26;20840;-71
2024/04/09 03:56:59;;;;;;;2.93;2.27;;;16.60;99.90;;;;;;5416715;26;20434;-71
2024/04/09 03:59:24;;;;;;;3.23;1.40;;;16.60;99.90;;;;;;5416802;26;20832;-71
2024/04/09 04:01:50;;;;;;;4.60;1.53;;;16.60;99.90;;;;;;5417325;26;20435;-72
2024/04/09 04:04:17;;;;;;;2.83;1.60;;;16.70;99.90;;;;;;5417200;26;20216;-72
2024/04/09 04:06:43;;;;;;;8.03;1.70;;;16.70;99.90;;;;;;5417163;26;20212;-72
2024/04/09 04:09:08;;;;;;;4.00;1.40;;;16.70;99.90;;;;;;5416695;26;20434;-72
2024/04/09 04:11:35;;;;;;;4.93;1.00;;;16.70;99.90;;;;;;5415450;26;20220;-72
2024/04/09 04:14:01;;;;;;;2.33;1.20;;;16.70;99.90;;;;;;5416821;26;20208;-72
2024/04/09 04:16:26;;;;;;;1.53;1.13;;;16.70;99.90;;;;;;5416913;26;20438;-72
2024/04/09 04:18:52;;;;;;;5.90;1.50;;;16.70;99.90;;;;;;5416034;26;20446;-71
2024/04/09 04:21:22;;;;;;;4.10;2.13;;;16.60;99.90;;;;;;5416993;26;20220;-71
2024/04/09 04:23:56;;;;;;;1.83;1.37;;;16.60;99.90;;;;;;5416947;26;20262;-72
2024/04/09 04:26:24;;;;;;;2.70;1.07;;;16.50;99.90;;;;;;5417117;26;20490;-71
2024/04/09 04:28:50;;;;;;;2.73;2.47;;;16.40;99.90;;;;;;5416418;26;20494;-71
2024/04/09 04:31:18;;;;;;;1.43;0.90;;;16.40;99.90;;;;;;5416821;26;20564;-72
2024/04/09 04:33:45;;;;;;;4.60;1.20;;;16.40;99.90;;;;;;5416809;26;20423;-72
2024/04/09 04:36:12;;;;;;;2.87;2.00;;;16.40;99.90;;;;;;5416841;26;20550;-71
2024/04/09 04:38:38;;;;;;;4.80;1.17;;;16.30;99.90;;;;;;5416513;26;20427;-72
2024/04/09 04:41:06;;;;;;;5.03;1.13;;;16.30;99.90;;;;;;5416788;26;20454;-71
2024/04/09 04:43:33;;;;;;;3.80;1.33;;;16.20;99.90;;;;;;5416598;26;20485;-71
2024/04/09 04:45:59;;;;;;;1.83;0.90;;;16.10;99.90;;;;;;5416680;26;20436;-72
2024/04/09 04:48:25;;;;;;;1.20;0.70;;;16.10;99.90;;;;;;5416189;26;20486;-71
2024/04/09 04:50:52;;;;;;;1.37;1.20;;;16.00;99.90;;;;;;5414738;26;20446;-71
2024/04/09 04:53:18;;;;;;;1.97;0.90;;;16.00;99.90;;;;;;5416527;26;20660;-71
2024/04/09 04:55:43;;;;;;;1.47;0.87;;;16.00;99.90;;;;;;5416857;26;20435;-71
2024/04/09 04:58:09;;;;;;;1.60;1.07;;;16.00;99.90;;;;;;5416404;26;20953;-72
2024/04/09 05:00:39;;;;;;;2.40;1.20;;;16.10;99.90;;;;;;5415892;26;20220;-72
2024/04/09 05:03:05;;;;;;;2.20;1.00;;;16.10;99.90;;;;;;5416350;26;20209;-71
2024/04/09 05:05:31;;;;;;;1.77;0.80;;;16.10;99.90;;;;;;5416484;26;20549;-71
2024/04/09 05:07:57;;;;;;;1.40;1.17;;;16.00;99.90;;;;;;5415417;26;20564;-72
2024/04/09 05:10:23;;;;;;;1.40;0.80;;;16.10;99.90;;;;;;5414518;26;20506;-72
2024/04/09 05:12:50;;;;;;;1.67;0.87;;;16.10;99.90;;;;;;5416415;26;20439;-72
2024/04/09 05:15:17;;;;;;;2.40;0.83;;;16.10;99.90;;;;;;5416628;26;20320;-72
2024/04/09 05:17:44;;;;;;;1.83;0.87;;;16.10;99.90;;;;;;5416166;26;20491;-72
2024/04/09 05:20:10;;;;;;;2.40;0.80;;;16.00;99.90;;;;;;5416045;26;20565;-72
2024/04/09 05:22:40;;;;;;;1.43;0.80;;;16.10;99.90;;;;;;5416046;26;20431;-71
2024/04/09 05:25:06;;;;;;;2.70;1.20;;;15.90;99.90;;;;;;5416100;26;20435;-72
2024/04/09 05:27:32;;;;;;;1.00;0.80;;;15.80;99.90;;;;;;5416006;26;20497;-71
2024/04/09 05:29:58;;;;;;;1.10;0.80;;;15.80;99.90;;;;;;5415941;26;20904;-71
2024/04/09 05:32:24;;;;;;;3.43;1.10;;;15.90;99.90;;;;;;5414108;26;20446;-71
2024/04/09 05:34:50;;;;;;;2.33;1.00;;;15.90;99.90;;;;;;5415910;26;20294;-71
2024/04/09 05:37:15;;;;;;;1.80;1.27;;;15.90;99.90;;;;;;5414273;26;20459;-72
2024/04/09 05:39:42;;;;;;;1.53;0.80;;;15.80;99.90;;;;;;5415373;26;20698;-71
2024/04/09 05:42:09;;;;;;;3.23;0.87;;;15.80;99.90;;;;;;5415934;26;20711;-71
2024/04/09 05:44:35;;;;;;;1.60;1.10;;;15.80;99.90;;;;;;5415915;26;20574;-72
2024/04/09 05:47:00;;;;;;;2.53;1.20;;;15.70;99.90;;;;;;5415922;26;20969;-73
2024/04/09 05:49:26;;;;;;;1.17;1.03;;;15.70;99.90;;;;;;5415381;26;20236;-72
2024/04/09 05:51:51;;;;;;;1.40;1.17;;;15.60;99.90;;;;;;5415509;26;20761;-72
2024/04/09 05:54:18;;;;;;;1.60;1.00;;;15.70;99.90;;;;;;5415440;26;20266;-72
2024/04/09 05:56:47;;;;;;;0.90;0.80;;;15.70;99.90;;;;;;5415484;26;20208;-72
2024/04/09 05:59:13;;;;;;;1.40;1.07;;;15.70;99.90;;;;;;5415175;26;20446;-72
2024/04/09 06:01:39;;;;;;;2.67;1.10;;;15.70;99.90;;;;;;5415464;26;20434;-72
2024/04/09 06:04:05;;;;;;;3.63;1.40;;;15.70;99.90;;;;;;5415553;26;20293;-72
2024/04/09 06:06:30;;;;;;;11.33;6.47;;;15.60;99.90;;;;;;5415482;26;20668;-71
2024/04/09 06:08:56;;;;;;;3.40;2.17;;;15.50;99.90;;;;;;5414998;26;20450;-71
2024/04/09 06:11:22;;;;;;;1.37;1.00;;;15.40;99.90;;;;;;5415327;26;20558;-72
2024/04/09 06:13:47;;;;;;;1.00;0.80;;;15.20;99.90;;;;;;5415139;26;20250;-72
2024/04/09 06:16:13;;;;;;;0.90;0.80;;;15.00;99.90;;;;;;5415365;26;20309;-72
2024/04/09 06:18:38;;;;;;;5.00;1.10;;;15.00;99.90;;;;;;5414666;26;20213;-72
2024/04/09 06:21:04;;;;;;;3.90;1.20;;;14.90;99.90;;;;;;5416938;26;20220;-71
2024/04/09 06:23:31;;;;;;;0.90;0.70;;;14.90;99.90;;;;;;5418749;26;20316;-72
2024/04/09 06:25:57;;;;;;;0.87;0.73;;;14.80;99.90;;;;;;5418487;26;20212;-71
2024/04/09 06:28:23;;;;;;;1.97;0.83;;;14.90;99.90;;;;;;5418382;26;20426;-72
2024/04/09 06:30:48;;;;;;;1.20;1.00;;;14.90;99.90;;;;;;5418421;26;20514;-71
2024/04/09 06:33:14;;;;;;;1.43;0.90;;;14.80;99.90;;;;;;5418209;26;20220;-72
2024/04/09 06:35:39;;;;;;;1.60;1.10;;;14.70;99.90;;;;;;5418339;26;20259;-72
2024/04/09 06:38:06;;;;;;;1.20;1.10;;;14.60;99.90;;;;;;5418384;26;20284;-72
2024/04/09 06:40:32;;;;;;;3.30;2.47;;;14.70;99.90;;;;;;5418069;26;20221;-72
2024/04/09 06:42:58;;;;;;;1.47;0.80;;;14.80;99.90;;;;;;5418511;26;20789;-72
2024/04/09 06:45:23;;;;;;;1.43;0.70;;;14.70;99.90;;;;;;5418392;26;20888;-72
2024/04/09 06:47:49;;;;;;;1.13;0.70;;;14.60;99.90;;;;;;5418170;26;20446;-72
2024/04/09 06:50:15;;;;;;;0.90;0.70;;;14.50;99.90;;;;;;5417771;26;20243;-71
2024/04/09 06:52:41;;;;;;;1.00;0.70;;;14.20;99.90;;;;;;5418307;26;20212;-72
2024/04/09 06:55:07;;;;;;;2.80;1.33;;;14.10;99.90;;;;;;5418265;26;20500;-72
2024/04/09 06:57:33;;;;;;;1.37;0.90;;;14.00;99.90;;;;;;5418468;26;20430;-71
2024/04/09 06:59:59;;;;;;;1.60;0.83;;;14.00;99.90;;;;;;5418104;26;20220;-71
2024/04/09 07:02:24;;;;;;;0.90;0.60;;;14.10;99.90;;;;;;5418366;26;21026;-72
2024/04/09 07:04:50;;;;;;;4.40;0.90;;;14.10;99.90;;;;;;5417990;26;20713;-72
2024/04/09 07:07:16;;;;;;;1.40;0.80;;;14.00;99.90;;;;;;5418091;26;20321;-72
2024/04/09 07:09:41;;;;;;;2.87;0.90;;;14.10;99.90;;;;;;5417472;26;20615;-72
2024/04/09 07:12:07;;;;;;;1.00;0.63;;;14.00;99.90;;;;;;5418091;26;20668;-72
2024/04/09 07:14:33;;;;;;;1.33;0.77;;;14.00;99.90;;;;;;5417986;26;20695;-71
2024/04/09 07:16:59;;;;;;;1.90;0.70;;;13.90;99.90;;;;;;5417917;26;20434;-72
2024/04/09 07:19:24;;;;;;;1.17;1.00;;;13.80;99.90;;;;;;5417395;26;20616;-72
2024/04/09 07:21:50;;;;;;;2.00;1.00;;;13.80;99.90;;;;;;5418169;26;20213;-72
2024/04/09 07:24:15;;;;;;;1.00;0.67;;;13.80;99.90;;;;;;5417674;26;20212;-72
2024/04/09 07:26:41;;;;;;;1.30;0.73;;;13.80;99.90;;;;;;5417795;26;20212;-72
2024/04/09 07:29:07;;;;;;;1.40;0.87;;;13.80;99.90;;;;;;5415824;26;20212;-71
2024/04/09 07:31:34;;;;;;;1.47;0.80;;;13.90;99.90;;;;;;5417036;26;20217;-72
2024/04/09 07:33:59;;;;;;;1.53;1.13;;;13.80;99.90;;;;;;5417193;26;20220;-71
2024/04/09 07:36:25;;;;;;;7.03;4.30;;;13.90;99.90;;;;;;5417636;26;20498;-72
2024/04/09 07:38:52;;;;;;;2.37;1.77;;;13.90;99.90;;;;;;5417164;26;20321;-72
2024/04/09 07:41:22;;;;;;;3.50;2.40;;;14.10;99.90;;;;;;5417608;26;20220;-72
2024/04/09 07:43:48;;;;;;;1.10;0.80;;;14.20;99.90;;;;;;5417524;26;20434;-72
2024/04/09 07:46:14;;;;;;;2.30;1.27;;;14.20;99.90;;;;;;5417416;26;21017;-72
2024/04/09 07:48:39;;;;;;;3.30;1.60;;;14.30;99.90;;;;;;5416833;26;20438;-72
2024/04/09 07:51:05;;;;;;;2.70;1.20;;;14.30;99.90;;;;;;5417397;26;20731;-71
2024/04/09 07:53:31;;;;;;;1.20;0.90;;;14.50;99.90;;;;;;5417176;26;20310;-71
2024/04/09 07:55:57;;;;;;;1.53;0.77;;;14.70;99.90;;;;;;5417257;26;20691;-71
2024/04/09 07:58:22;;;;;;;1.00;0.70;;;15.00;99.90;;;;;;5417421;26;20587;-71
2024/04/09 08:00:49;;;;;;;1.83;0.90;;;15.20;99.90;;;;;;5417114;26;20228;-71
2024/04/09 08:03:14;;;;;;;1.70;0.87;;;15.20;99.90;;;;;;5417122;26;20259;-70
2024/04/09 08:05:40;;;;;;;1.40;0.80;;;15.20;99.90;;;;;;5417220;26;20960;-70
2024/04/09 08:08:05;;;;;;;1.20;0.83;;;15.30;99.90;;;;;;5417194;26;20758;-71
2024/04/09 08:10:31;;;;;;;0.90;0.70;;;15.40;99.90;;;;;;5416719;26;20703;-71
2024/04/09 08:12:57;;;;;;;1.57;0.90;;;15.20;99.90;;;;;;5417172;26;20209;-72
2024/04/09 08:15:23;;;;;;;1.77;1.13;;;15.20;99.90;;;;;;5415256;26;20494;-71
2024/04/09 08:17:50;;;;;;;0.80;0.50;;;15.10;99.90;;;;;;5417060;26;20438;-71
2024/04/09 08:20:18;;;;;;;1.37;1.10;;;15.00;99.90;;;;;;5416634;26;20490;-71
2024/04/09 08:22:49;;;;;;;2.40;0.97;;;15.00;99.90;;;;;;5416837;26;20420;-74
2024/04/09 08:25:15;;;;;;;4.70;0.90;;;15.20;99.90;;;;;;5417012;26;20553;-71
2024/04/09 08:27:41;;;;;;;1.20;0.70;;;15.00;99.90;;;;;;5417000;26;20479;-71
2024/04/09 08:30:12;;;;;;;1.37;1.00;;;14.80;99.90;;;;;;5413998;26;20860;-71
2024/04/09 08:32:38;;;;;;;1.10;0.80;;;15.00;99.90;;;;;;5416895;26;20490;-71
2024/04/09 08:35:04;;;;;;;2.30;0.87;;;14.90;99.90;;;;;;5416590;26;20443;-72
2024/04/09 08:37:29;;;;;;;1.50;1.00;;;14.80;99.90;;;;;;5416833;26;20216;-72
2024/04/09 08:39:55;;;;;;;1.33;0.90;;;14.90;99.90;;;;;;5414426;26;20228;-72
2024/04/09 08:42:26;;;;;;;1.03;0.70;;;14.70;99.90;;;;;;5417029;26;20216;-73
2024/04/09 08:44:57;;;;;;;2.03;0.80;;;14.70;99.90;;;;;;5432333;26;20553;-74
2024/04/09 08:47:26;;;;;;;0.90;0.70;;;14.80;99.90;;;;;;5450681;26;20837;-73
2024/04/09 08:49:55;;;;;;;2.83;0.90;;;14.80;99.90;;;;;;5451311;26;20502;-73
2024/04/09 08:52:25;;;;;;;1.83;0.67;;;14.90;99.90;;;;;;5452392;26;20552;-73
2024/04/09 08:54:51;;;;;;;2.30;0.97;;;15.00;99.90;;;;;;5451926;26;20501;-73
2024/04/09 08:57:18;;;;;;;1.73;0.93;;;14.80;99.90;;;;;;5450503;26;20452;-72
2024/04/09 08:59:44;;;;;;;0.80;0.60;;;14.60;99.90;;;;;;5450022;26;20754;-74
2024/04/09 09:02:12;;;;;;;2.10;1.00;;;14.60;99.90;;;;;;5452414;26;20429;-73
2024/04/09 09:04:39;;;;;;;2.63;1.07;;;14.70;99.90;;;;;;5450485;26;20231;-73
2024/04/09 09:07:12;;;;;;;2.77;1.00;;;14.80;99.90;;;;;;5451475;26;20489;-71
2024/04/09 09:09:38;;;;;;;1.20;0.83;;;14.90;99.90;;;;;;5451307;26;20457;-71
2024/04/09 09:12:05;;;;;;;2.37;0.83;;;14.90;99.90;;;;;;5452483;26;20983;-72
2024/04/09 09:14:31;;;;;;;3.43;0.90;;;14.80;99.90;;;;;;5440170;26;20292;-73
2024/04/09 09:17:01;;;;;;;3.63;1.00;;;14.70;99.90;;;;;;5416398;26;20487;-72
2024/04/09 09:19:30;;;;;;;2.67;1.13;;;14.60;99.90;;;;;;5416087;26;20237;-71
2024/04/09 09:21:58;;;;;;;3.83;0.80;;;14.50;99.90;;;;;;5416673;26;20486;-71
2024/04/09 09:24:23;;;;;;;2.27;1.00;;;14.40;99.90;;;;;;5416535;26;20447;-70
2024/04/09 09:27:01;;;;;;;0.90;0.80;;;14.20;99.90;;;;;;5416550;26;20439;-72
2024/04/09 09:29:27;;;;;;;1.40;1.00;;;14.20;99.90;;;;;;5416470;26;20232;-72
2024/04/09 09:31:53;;;;;;;3.50;0.97;;;14.40;99.90;;;;;;5416326;26;20431;-72
2024/04/09 09:34:25;;;;;;;2.00;0.87;;;14.50;99.90;;;;;;5416304;26;20447;-71
2024/04/09 09:36:55;;;;;;;2.90;1.20;;;14.70;99.90;;;;;;5416645;26;20255;-71
2024/04/09 09:39:21;;;;;;;1.47;0.90;;;15.10;99.90;;;;;;5415787;26;20462;-71
2024/04/09 09:41:48;;;;;;;8.27;3.70;;;15.60;99.90;;;;;;5415956;26;20549;-71
2024/04/09 09:44:16;;;;;;;1.30;1.13;;;16.40;99.90;;;;;;5416004;26;20479;-71
2024/04/09 09:46:44;;;;;;;9.70;1.20;;;17.50;99.90;;;;;;5415449;26;20469;-71
2024/04/09 09:49:11;;;;;;;1.23;0.77;;;18.50;98.80;;;;;;5415305;26;20431;-71
2024/04/09 09:51:37;;;;;;;2.90;1.13;;;18.90;94.50;;;;;;5415586;26;20528;-71
2024/04/09 09:54:02;;;;;;;4.07;1.17;;;19.00;91.30;;;;;;5415251;26;20459;-71
2024/04/09 09:56:29;;;;;;;2.33;1.00;;;18.80;88.20;;;;;;5414844;26;20483;-72
2024/04/09 09:58:56;;;;;;;1.23;1.10;;;18.70;89.10;;;;;;5415232;26;20607;-72
2024/04/09 10:01:23;;;;;;;5.27;1.00;;;18.60;89.00;;;;;;5415627;26;20863;-70
2024/04/09 10:03:50;;;;;;;3.50;0.93;;;18.40;88.20;;;;;;5415288;26;20446;-76
2024/04/09 10:06:16;;;;;;;3.53;1.50;;;17.90;88.50;;;;;;5414019;26;20458;-71
2024/04/09 10:08:42;;;;;;;1.30;0.83;;;17.80;91.00;;;;;;5414939;26;20506;-72
2024/04/09 10:11:08;;;;;;;2.50;1.00;;;17.60;88.10;;;;;;5414413;26;20278;-70
2024/04/09 10:13:34;;;;;;;1.00;0.80;;;17.10;87.80;;;;;;5414967;26;20519;-70
2024/04/09 10:16:01;;;;;;;2.90;0.90;;;16.90;86.20;;;;;;5415451;26;20237;-71
2024/04/09 10:18:28;;;;;;;1.27;0.70;;;16.70;81.50;;;;;;5414688;26;20216;-71
2024/04/09 10:20:53;;;;;;;2.30;1.00;;;16.60;79.80;;;;;;5414497;26;20466;-72
2024/04/09 10:23:20;;;;;;;3.33;1.07;;;16.50;78.60;;;;;;5415154;26;20499;-72
2024/04/09 10:25:46;;;;;;;0.83;0.63;;;16.30;76.40;;;;;;5415474;26;20591;-72
2024/04/09 10:28:24;;;;;;;4.30;0.70;;;16.10;77.30;;;;;;5414863;26;20446;-71
2024/04/09 10:30:52;;;;;;;3.23;1.13;;;16.20;80.30;;;;;;5415115;26;20457;-72
2024/04/09 10:33:30;;;;;;;0.80;0.60;;;16.00;78.20;;;;;;5415112;26;20442;-71
2024/04/09 10:35:58;;;;;;;4.00;1.00;;;16.20;80.60;;;;;;5414935;26;20450;-72
2024/04/09 10:38:25;;;;;;;3.27;1.40;;;16.00;82.10;;;;;;5414600;26;20834;-72
2024/04/09 10:40:51;;;;;;;2.40;0.93;;;16.00;85.10;;;;;;5412620;26;20894;-71
2024/04/09 10:43:17;;;;;;;2.07;0.80;;;15.90;87.70;;;;;;5414245;26;20442;-72
2024/04/09 10:45:43;;;;;;;0.80;0.60;;;15.70;84.30;;;;;;5414685;26;20510;-72
2024/04/09 10:48:09;;;;;;;2.13;0.80;;;15.70;83.40;;;;;;5414531;26;20586;-72
2024/04/09 10:50:35;;;;;;;2.50;0.80;;;15.80;86.30;;;;;;5414082;26;20462;-71
2024/04/09 10:53:02;;;;;;;3.67;1.30;;;15.80;82.60;;;;;;5414571;26;20259;-71
2024/04/09 10:55:28;;;;;;;1.73;0.73;;;15.80;84.70;;;;;;5414403;26;20707;-72
2024/04/09 10:57:54;;;;;;;1.10;0.70;;;15.70;80.20;;;;;;5414474;26;20495;-71
2024/04/09 11:00:21;;;;;;;2.20;0.97;;;15.80;83.00;;;;;;5413804;26;20873;-71
2024/04/09 11:02:47;;;;;;;1.50;0.90;;;16.20;81.80;;;;;;5414396;26;20280;-71
2024/04/09 11:05:16;;;;;;;1.97;1.77;;;16.60;77.10;;;;;;5414246;26;20528;-71
2024/04/09 11:07:43;;;;;;;1.43;1.17;;;16.90;74.20;;;;;;5415747;26;20545;-71
2024/04/09 11:10:11;;;;;;;2.73;1.13;;;17.30;73.00;;;;;;5417476;26;20513;-71
2024/04/09 11:12:45;;;;;;;1.20;0.90;;;17.60;69.30;;;;;;5417799;26;20493;-71
2024/04/09 11:15:12;;;;;;;2.60;0.80;;;17.70;68.00;;;;;;5417836;26;20565;-72
2024/04/09 11:17:40;;;;;;;2.97;1.30;;;17.60;65.90;;;;;;5417823;26;20789;-71
2024/04/09 11:20:19;;;;;;;4.53;0.90;;;17.80;65.50;;;;;;5417320;26;20454;-72
2024/04/09 11:22:47;;;;;;;2.20;0.97;;;17.80;63.10;;;;;;5417955;26;20585;-72
2024/04/09 11:25:19;;;;;;;1.40;0.90;;;17.70;61.10;;;;;;5417744;26;20446;-72
2024/04/09 11:27:51;;;;;;;1.17;0.80;;;17.90;64.00;;;;;;5417874;26;20442;-72
2024/04/09 11:30:32;;;;;;;3.83;0.90;;;18.00;59.70;;;;;;5415578;26;20470;-72
2024/04/09 11:32:57;;;;;;;1.73;1.07;;;19.10;60.30;;;;;;5418133;26;21111;-72
2024/04/09 11:35:25;;;;;;;1.30;0.90;;;20.40;55.60;;;;;;5417495;26;20447;-72
2024/04/09 11:37:57;;;;;;;2.83;1.50;;;20.90;53.40;;;;;;5417574;26;20217;-72
2024/04/09 11:40:24;;;;;;;1.67;0.97;;;21.50;50.80;;;;;;5416523;26;20529;-72
2024/04/09 11:42:50;;;;;;;3.27;1.07;;;21.50;49.20;;;;;;5417590;26;21000;-73
2024/04/09 11:45:20;;;;;;;2.70;1.20;;;21.10;48.10;;;;;;5417511;26;20846;-73
2024/04/09 11:47:45;;;;;;;2.20;0.90;;;20.90;48.20;;;;;;5417420;26;20442;-72
2024/04/09 11:50:11;;;;;;;1.90;1.00;;;20.90;49.50;;;;;;5415000;26;21062;-72
2024/04/09 11:52:37;;;;;;;1.97;1.10;;;20.90;48.90;;;;;;5416902;26;20325;-73
2024/04/09 11:55:02;;;;;;;2.17;1.10;;;21.40;50.30;;;;;;5417297;26;20260;-72
2024/04/09 11:57:28;;;;;;;1.53;1.00;;;22.50;47.50;;;;;;5415525;26;20232;-72
2024/04/09 11:59:53;;;;;;;1.00;0.70;;;23.10;47.10;;;;;;5416809;26;20284;-72
2024/04/09 12:02:19;;;;;;;1.30;1.00;;;23.40;42.70;;;;;;5417284;26;20228;-72
2024/04/09 12:04:44;;;;;;;1.70;0.93;;;23.20;43.30;;;;;;5415294;26;20228;-72
2024/04/09 12:07:10;;;;;;;3.10;1.53;;;23.10;41.20;;;;;;5416536;26;20224;-72
2024/04/09 12:09:36;;;;;;;2.43;1.37;;;23.30;41.10;;;;;;5416733;26;20333;-72
2024/04/09 12:12:03;;;;;;;3.00;1.07;;;24.80;40.70;;;;;;5417214;26;20216;-71
2024/04/09 12:14:28;;;;;;;2.70;0.83;;;26.50;40.70;;;;;;5417042;26;20933;-72
2024/04/09 12:16:54;;;;;;;1.20;1.00;;;28.70;37.30;;;;;;5417074;26;20451;-73
2024/04/09 12:19:19;;;;;;;1.80;0.80;;;29.60;33.50;;;;;;5416036;26;20637;-72
2024/04/09 12:21:45;;;;;;;2.07;0.90;;;30.10;30.20;;;;;;5416967;26;20270;-72
2024/04/09 12:24:11;;;;;;;1.63;1.20;;;30.20;29.00;;;;;;5415251;26;20255;-72
2024/04/09 12:26:37;;;;;;;2.33;1.20;;;29.60;28.20;;;;;;5417103;26;20225;-70
2024/04/09 12:29:03;;;;;;;3.20;1.37;;;28.10;29.10;;;;;;5416475;26;20546;-70
2024/04/09 12:31:28;;;;;;;2.70;1.03;;;26.50;30.00;;;;;;5416853;26;20216;-70
2024/04/09 12:33:54;;;;;;;2.70;0.80;;;25.70;31.40;;;;;;5416745;26;20216;-70
2024/04/09 12:36:20;;;;;;;1.67;1.13;;;24.50;31.30;;;;;;5416790;26;20329;-71
2024/04/09 12:38:45;;;;;;;2.47;0.83;;;23.50;32.40;;;;;;5416123;26;20328;-70
2024/04/09 12:41:12;;;;;;;3.63;1.07;;;22.10;33.70;;;;;;5416656;26;20308;-70